createdAt,value
2018-05-29T00:00:00.740Z,26.7
2018-05-29T00:01:00.484Z,26.63
2018-05-29T00:02:00.779Z,26.59
2018-05-29T00:03:00.535Z,26.59
2018-05-29T00:04:00.593Z,26.56
2018-05-29T00:05:00.593Z,26.52
2018-05-29T00:06:00.913Z,26.52
2018-05-29T00:07:00.650Z,26.52
2018-05-29T00:08:00.951Z,26.58
2018-05-29T00:09:00.696Z,26.53
2018-05-29T00:10:00.998Z,26.48
2018-05-29T00:11:01.047Z,26.45
2018-05-29T00:12:01.063Z,26.47
2018-05-29T00:13:00.831Z,26.45
2018-05-29T00:14:00.829Z,26.44
2018-05-29T00:15:01.173Z,26.4
2018-05-29T00:16:01.161Z,26.37
2018-05-29T00:17:01.220Z,26.37
2018-05-29T00:18:00.679Z,26.33
2018-05-29T00:19:01.257Z,26.25
2018-05-29T00:20:01.021Z,26.26
2018-05-29T00:21:01.050Z,26.28
2018-05-29T00:22:01.345Z,26.23
2018-05-29T00:23:01.100Z,26.29
2018-05-29T00:24:01.118Z,26.23
2018-05-29T00:25:01.154Z,26.22
2018-05-29T00:26:01.184Z,26.21
2018-05-29T00:27:01.487Z,26.22
2018-05-29T00:28:01.491Z,26.21
2018-05-29T00:29:01.546Z,26.23
2018-05-29T00:30:01.328Z,26.21
2018-05-29T00:31:01.309Z,26.1
2018-05-29T00:32:01.344Z,26.23
2018-05-29T00:33:01.364Z,26.21
2018-05-29T00:34:01.676Z,26.18
2018-05-29T00:35:01.709Z,26.09
2018-05-29T00:36:01.720Z,26.09
2018-05-29T00:37:01.469Z,26.07
2018-05-29T00:38:01.496Z,26.09
2018-05-29T00:39:01.532Z,26.1
2018-05-29T00:40:01.831Z,26.06
2018-05-29T00:41:01.850Z,26.05
2018-05-29T00:42:01.612Z,25.99
2018-05-29T00:43:01.931Z,25.95
2018-05-29T00:44:01.949Z,25.99
2018-05-29T00:45:01.699Z,25.95
2018-05-29T00:46:01.741Z,26
2018-05-29T00:47:02.043Z,25.95
2018-05-29T00:48:02.049Z,25.96
2018-05-29T00:49:02.078Z,25.95
2018-05-29T00:50:02.103Z,25.9
2018-05-29T00:51:02.237Z,25.84
2018-05-29T00:52:01.644Z,25.91
2018-05-29T00:53:02.184Z,25.84
2018-05-29T00:54:02.090Z,25.84
2018-05-29T00:55:02.239Z,25.83
2018-05-29T00:56:02.266Z,25.87
2018-05-29T00:57:02.020Z,25.81
2018-05-29T00:58:02.362Z,25.7
2018-05-29T00:59:02.087Z,25.75
2018-05-29T01:00:02.370Z,25.77
2018-05-29T01:01:02.397Z,25.75
2018-05-29T01:02:02.158Z,25.73
2018-05-29T01:03:02.435Z,25.7
2018-05-29T01:04:02.202Z,25.69
2018-05-29T01:05:02.518Z,25.7
2018-05-29T01:06:02.547Z,25.66
2018-05-29T01:07:02.278Z,25.75
2018-05-29T01:08:02.575Z,25.68
2018-05-29T01:09:02.489Z,25.62
2018-05-29T01:10:02.663Z,25.58
2018-05-29T01:11:02.671Z,25.65
2018-05-29T01:12:02.677Z,25.54
2018-05-29T01:13:02.472Z,25.58
2018-05-29T01:14:02.754Z,25.48
2018-05-29T01:15:02.515Z,25.62
2018-05-29T01:16:02.250Z,25.55
2018-05-29T01:17:02.832Z,25.5
2018-05-29T01:18:02.847Z,25.58
2018-05-29T01:19:03.047Z,25.54
2018-05-29T01:20:02.668Z,25.53
2018-05-29T01:21:02.677Z,25.6
2018-05-29T01:22:03.146Z,25.48
2018-05-29T01:23:03.159Z,25.43
2018-05-29T01:24:02.761Z,25.44
2018-05-29T01:25:03.027Z,25.5
2018-05-29T01:26:02.802Z,25.48
2018-05-29T01:27:03.088Z,25.38
2018-05-29T01:28:03.150Z,25.41
2018-05-29T01:29:03.146Z,25.31
2018-05-29T01:30:02.951Z,25.33
2018-05-29T01:31:03.204Z,25.33
2018-05-29T01:32:02.957Z,25.29
2018-05-29T01:33:03.250Z,25.38
2018-05-29T01:34:03.296Z,25.29
2018-05-29T01:35:03.296Z,25.33
2018-05-29T01:36:03.359Z,25.28
2018-05-29T01:37:03.367Z,25.29
2018-05-29T01:38:03.377Z,25.26
2018-05-29T01:39:03.411Z,25.25
2018-05-29T01:40:03.479Z,25.22
2018-05-29T01:41:03.483Z,25.18
2018-05-29T01:42:03.248Z,25.17
2018-05-29T01:43:03.239Z,25.21
2018-05-29T01:44:03.272Z,25.17
2018-05-29T01:45:03.311Z,25.13
2018-05-29T01:46:03.593Z,25.14
2018-05-29T01:47:03.649Z,25.21
2018-05-29T01:48:03.668Z,25.1
2018-05-29T01:49:03.401Z,25.1
2018-05-29T01:50:03.715Z,25.08
2018-05-29T01:51:03.480Z,25.04
2018-05-29T01:52:03.813Z,25.06
2018-05-29T01:53:03.793Z,25.14
2018-05-29T01:54:03.558Z,25.13
2018-05-29T01:55:03.578Z,25.11
2018-05-29T01:56:03.628Z,25.01
2018-05-29T01:57:03.632Z,25.11
2018-05-29T01:58:03.653Z,24.98
2018-05-29T01:59:03.409Z,24.99
2018-05-29T02:00:03.962Z,25.01
2018-05-29T02:01:04.014Z,24.96
2018-05-29T02:02:04.041Z,24.93
2018-05-29T02:03:04.081Z,24.93
2018-05-29T02:04:03.829Z,24.89
2018-05-29T02:05:03.565Z,24.98
2018-05-29T02:06:03.875Z,24.89
2018-05-29T02:07:04.183Z,24.88
2018-05-29T02:08:04.181Z,24.91
2018-05-29T02:09:03.950Z,24.89
2018-05-29T02:10:04.251Z,24.92
2018-05-29T02:11:04.055Z,24.81
2018-05-29T02:12:04.271Z,24.78
2018-05-29T02:13:04.622Z,24.81
2018-05-29T02:14:04.069Z,24.88
2018-05-29T02:15:04.094Z,24.85
2018-05-29T02:16:04.111Z,24.81
2018-05-29T02:17:03.873Z,24.8
2018-05-29T02:18:04.453Z,24.78
2018-05-29T02:19:04.200Z,24.78
2018-05-29T02:20:04.238Z,24.77
2018-05-29T02:21:04.543Z,24.76
2018-05-29T02:22:04.553Z,24.73
2018-05-29T02:23:04.323Z,24.77
2018-05-29T02:24:04.589Z,24.73
2018-05-29T02:25:04.362Z,24.69
2018-05-29T02:26:04.641Z,24.65
2018-05-29T02:27:04.409Z,24.77
2018-05-29T02:28:04.445Z,24.57
2018-05-29T02:29:04.199Z,24.63
2018-05-29T02:30:04.476Z,24.68
2018-05-29T02:31:04.784Z,24.68
2018-05-29T02:32:04.538Z,24.65
2018-05-29T02:33:04.835Z,24.61
2018-05-29T02:34:04.316Z,24.61
2018-05-29T02:35:04.363Z,24.55
2018-05-29T02:36:04.696Z,24.55
2018-05-29T02:37:04.932Z,24.6
2018-05-29T02:38:04.730Z,24.54
2018-05-29T02:39:05.064Z,24.57
2018-05-29T02:40:04.768Z,24.58
2018-05-29T02:41:05.061Z,24.58
2018-05-29T02:42:04.839Z,24.54
2018-05-29T02:43:04.833Z,24.53
2018-05-29T02:44:04.861Z,24.54
2018-05-29T02:45:05.166Z,24.47
2018-05-29T02:46:04.935Z,24.4
2018-05-29T02:47:04.662Z,24.43
2018-05-29T02:48:04.961Z,24.45
2018-05-29T02:49:05.275Z,24.42
2018-05-29T02:50:05.027Z,24.39
2018-05-29T02:51:05.287Z,24.43
2018-05-29T02:52:04.813Z,24.48
2018-05-29T02:53:05.113Z,24.47
2018-05-29T02:54:05.401Z,24.45
2018-05-29T02:55:05.144Z,24.43
2018-05-29T02:56:05.150Z,24.4
2018-05-29T02:57:05.485Z,24.43
2018-05-29T02:58:05.514Z,24.3
2018-05-29T02:59:05.250Z,24.35
2018-05-29T03:00:05.550Z,24.38
2018-05-29T03:01:05.590Z,24.36
2018-05-29T03:02:05.364Z,24.35
2018-05-29T03:03:05.358Z,24.28
2018-05-29T03:04:06.213Z,24.24
2018-05-29T03:05:05.390Z,24.28
2018-05-29T03:06:05.198Z,24.29
2018-05-29T03:07:05.724Z,24.24
2018-05-29T03:08:05.875Z,24.24
2018-05-29T03:09:05.776Z,24.28
2018-05-29T03:10:05.809Z,24.23
2018-05-29T03:11:05.575Z,24.23
2018-05-29T03:12:05.868Z,24.21
2018-05-29T03:13:05.899Z,24.26
2018-05-29T03:14:05.655Z,24.2
2018-05-29T03:15:05.961Z,24.2
2018-05-29T03:16:05.959Z,24.17
2018-05-29T03:17:05.986Z,24.18
2018-05-29T03:18:05.738Z,24.17
2018-05-29T03:19:05.775Z,24.17
2018-05-29T03:20:05.825Z,24.08
2018-05-29T03:21:06.261Z,24.06
2018-05-29T03:22:05.848Z,24.18
2018-05-29T03:23:05.868Z,24.03
2018-05-29T03:24:06.167Z,24.13
2018-05-29T03:25:05.834Z,24.08
2018-05-29T03:26:05.951Z,24.08
2018-05-29T03:27:06.243Z,24.05
2018-05-29T03:28:06.009Z,24.11
2018-05-29T03:29:06.305Z,24.11
2018-05-29T03:30:06.298Z,24.08
2018-05-29T03:31:06.065Z,24.03
2018-05-29T03:32:06.102Z,24.08
2018-05-29T03:33:06.423Z,24.06
2018-05-29T03:34:06.159Z,24.05
2018-05-29T03:35:05.914Z,24.03
2018-05-29T03:36:06.194Z,24.03
2018-05-29T03:37:06.226Z,24.02
2018-05-29T03:38:06.244Z,23.99
2018-05-29T03:39:06.291Z,24.03
2018-05-29T03:40:06.309Z,23.99
2018-05-29T03:41:06.346Z,23.99
2018-05-29T03:42:06.346Z,23.95
2018-05-29T03:43:06.400Z,23.95
2018-05-29T03:44:06.418Z,23.93
2018-05-29T03:45:06.724Z,23.92
2018-05-29T03:46:06.730Z,23.99
2018-05-29T03:47:06.504Z,23.92
2018-05-29T03:48:06.522Z,23.88
2018-05-29T03:49:06.261Z,23.93
2018-05-29T03:50:06.830Z,23.93
2018-05-29T03:51:06.878Z,23.87
2018-05-29T03:52:06.614Z,23.86
2018-05-29T03:53:06.905Z,23.86
2018-05-29T03:54:06.388Z,23.88
2018-05-29T03:55:06.945Z,23.88
2018-05-29T03:56:06.452Z,23.88
2018-05-29T03:57:06.751Z,23.87
2018-05-29T03:58:07.053Z,23.86
2018-05-29T03:59:07.081Z,23.92
2018-05-29T04:00:06.810Z,23.87
2018-05-29T04:01:06.566Z,23.78
2018-05-29T04:02:07.151Z,23.87
2018-05-29T04:03:06.889Z,23.87
2018-05-29T04:04:07.171Z,23.83
2018-05-29T04:05:07.217Z,23.84
2018-05-29T04:06:06.966Z,23.78
2018-05-29T04:07:06.979Z,23.78
2018-05-29T04:08:07.019Z,23.86
2018-05-29T04:09:07.305Z,23.76
2018-05-29T04:10:07.450Z,23.76
2018-05-29T04:11:07.107Z,23.78
2018-05-29T04:12:07.388Z,23.74
2018-05-29T04:13:07.275Z,23.76
2018-05-29T04:14:07.436Z,23.73
2018-05-29T04:15:07.230Z,23.77
2018-05-29T04:16:07.477Z,23.8
2018-05-29T04:17:07.404Z,23.76
2018-05-29T04:18:07.287Z,23.78
2018-05-29T04:19:07.567Z,23.77
2018-05-29T04:20:07.607Z,23.74
2018-05-29T04:21:07.352Z,23.78
2018-05-29T04:22:07.628Z,23.77
2018-05-29T04:23:07.392Z,23.77
2018-05-29T04:24:07.696Z,23.81
2018-05-29T04:25:07.462Z,23.73
2018-05-29T04:26:07.859Z,23.81
2018-05-29T04:27:07.492Z,23.78
2018-05-29T04:28:07.553Z,23.76
2018-05-29T04:29:07.980Z,23.74
2018-05-29T04:30:07.674Z,23.78
2018-05-29T04:31:07.949Z,23.78
2018-05-29T04:32:07.652Z,23.78
2018-05-29T04:33:08.067Z,23.74
2018-05-29T04:34:07.691Z,23.76
2018-05-29T04:35:07.451Z,23.71
2018-05-29T04:36:08.003Z,23.81
2018-05-29T04:37:07.759Z,23.76
2018-05-29T04:38:07.783Z,23.74
2018-05-29T04:39:07.527Z,23.73
2018-05-29T04:40:07.811Z,23.77
2018-05-29T04:41:07.596Z,23.73
2018-05-29T04:42:07.900Z,23.77
2018-05-29T04:43:08.164Z,23.71
2018-05-29T04:44:08.199Z,23.73
2018-05-29T04:45:07.988Z,23.81
2018-05-29T04:46:07.722Z,23.74
2018-05-29T04:47:08.546Z,23.71
2018-05-29T04:48:08.249Z,23.83
2018-05-29T04:49:08.061Z,23.78
2018-05-29T04:50:08.076Z,23.68
2018-05-29T04:51:08.240Z,23.77
2018-05-29T04:52:08.127Z,23.74
2018-05-29T04:53:08.449Z,23.73
2018-05-29T04:54:08.185Z,23.68
2018-05-29T04:55:08.499Z,23.8
2018-05-29T04:56:08.418Z,23.74
2018-05-29T04:57:08.275Z,23.71
2018-05-29T04:58:08.273Z,23.69
2018-05-29T04:59:08.588Z,23.71
2018-05-29T05:00:08.324Z,23.77
2018-05-29T05:01:08.087Z,23.69
2018-05-29T05:02:09.160Z,23.69
2018-05-29T05:03:08.415Z,23.69
2018-05-29T05:04:08.692Z,23.69
2018-05-29T05:05:08.740Z,23.73
2018-05-29T05:06:23.544Z,23.66
2018-05-29T05:07:08.501Z,23.74
2018-05-29T05:08:08.540Z,23.73
2018-05-29T05:09:08.820Z,23.74
2018-05-29T05:10:08.866Z,23.65
2018-05-29T05:11:08.610Z,23.71
2018-05-29T05:12:08.648Z,23.66
2018-05-29T05:13:08.663Z,23.66
2018-05-29T05:14:08.428Z,23.62
2018-05-29T05:15:08.999Z,23.69
2018-05-29T05:16:09.036Z,23.74
2018-05-29T05:17:08.612Z,23.74
2018-05-29T05:18:08.789Z,23.73
2018-05-29T05:19:09.085Z,23.73
2018-05-29T05:20:08.838Z,23.69
2018-05-29T05:21:08.861Z,23.66
2018-05-29T05:22:08.880Z,23.73
2018-05-29T05:23:09.171Z,23.69
2018-05-29T05:24:09.216Z,23.71
2018-05-29T05:25:08.967Z,23.71
2018-05-29T05:26:09.263Z,23.66
2018-05-29T05:27:09.278Z,23.69
2018-05-29T05:28:09.311Z,23.68
2018-05-29T05:29:09.317Z,23.74
2018-05-29T05:30:09.477Z,23.74
2018-05-29T05:31:09.098Z,23.71
2018-05-29T05:32:09.612Z,23.83
2018-05-29T05:33:09.442Z,23.65
2018-05-29T05:34:09.191Z,23.74
2018-05-29T05:35:09.235Z,23.77
2018-05-29T05:36:09.494Z,23.77
2018-05-29T05:37:08.999Z,23.71
2018-05-29T05:38:09.560Z,23.76
2018-05-29T05:39:09.320Z,23.78
2018-05-29T05:40:09.590Z,23.63
2018-05-29T05:41:09.365Z,23.71
2018-05-29T05:42:09.658Z,23.78
2018-05-29T05:43:09.685Z,23.78
2018-05-29T05:44:09.699Z,23.74
2018-05-29T05:45:09.465Z,23.69
2018-05-29T05:46:09.969Z,23.73
2018-05-29T05:47:09.513Z,23.76
2018-05-29T05:48:09.549Z,23.76
2018-05-29T05:49:09.853Z,23.77
2018-05-29T05:50:09.588Z,23.78
2018-05-29T05:51:09.892Z,23.8
2018-05-29T05:52:09.897Z,23.71
2018-05-29T05:53:09.680Z,23.81
2018-05-29T05:54:09.983Z,23.76
2018-05-29T05:55:09.715Z,23.8
2018-05-29T05:56:10.011Z,23.84
2018-05-29T05:57:09.923Z,23.83
2018-05-29T05:58:09.790Z,23.87
2018-05-29T05:59:09.538Z,23.92
2018-05-29T06:00:09.556Z,23.88
2018-05-29T06:01:09.860Z,23.88
2018-05-29T06:02:10.161Z,23.87
2018-05-29T06:03:10.192Z,23.92
2018-05-29T06:04:09.671Z,23.87
2018-05-29T06:05:10.310Z,23.96
2018-05-29T06:06:10.031Z,23.96
2018-05-29T06:07:10.307Z,23.93
2018-05-29T06:08:10.306Z,23.96
2018-05-29T06:09:10.337Z,24.02
2018-05-29T06:10:10.111Z,24.06
2018-05-29T06:11:10.393Z,24.05
2018-05-29T06:12:10.135Z,24.11
2018-05-29T06:13:10.182Z,24.14
2018-05-29T06:14:10.192Z,24.14
2018-05-29T06:15:10.481Z,24.17
2018-05-29T06:16:10.516Z,24.17
2018-05-29T06:17:10.274Z,24.18
2018-05-29T06:18:10.582Z,24.17
2018-05-29T06:19:10.600Z,24.23
2018-05-29T06:20:10.609Z,24.18
2018-05-29T06:21:10.085Z,24.21
2018-05-29T06:22:10.398Z,24.24
2018-05-29T06:23:10.436Z,24.3
2018-05-29T06:24:10.705Z,24.29
2018-05-29T06:25:10.467Z,24.35
2018-05-29T06:26:10.793Z,24.38
2018-05-29T06:27:10.524Z,24.39
2018-05-29T06:28:10.814Z,24.45
2018-05-29T06:29:10.565Z,24.39
2018-05-29T06:30:10.592Z,24.47
2018-05-29T06:31:10.877Z,24.43
2018-05-29T06:32:10.648Z,24.51
2018-05-29T06:33:10.933Z,24.5
2018-05-29T06:34:10.985Z,24.54
2018-05-29T06:35:10.719Z,24.47
2018-05-29T06:36:11.019Z,24.55
2018-05-29T06:37:11.044Z,24.58
2018-05-29T06:38:10.910Z,24.54
2018-05-29T06:39:11.088Z,24.57
2018-05-29T06:40:10.845Z,24.6
2018-05-29T06:41:11.148Z,24.61
2018-05-29T06:42:11.163Z,24.69
2018-05-29T06:43:10.920Z,24.58
2018-05-29T06:44:11.217Z,24.68
2018-05-29T06:45:11.475Z,24.68
2018-05-29T06:46:11.279Z,24.74
2018-05-29T06:47:11.022Z,24.78
2018-05-29T06:48:11.042Z,24.7
2018-05-29T06:49:11.362Z,24.84
2018-05-29T06:50:11.371Z,24.81
2018-05-29T06:51:11.125Z,24.91
2018-05-29T06:52:11.424Z,24.8
2018-05-29T06:53:11.188Z,24.95
2018-05-29T06:54:11.208Z,24.96
2018-05-29T06:55:11.491Z,24.92
2018-05-29T06:56:11.268Z,24.99
2018-05-29T06:57:11.282Z,24.99
2018-05-29T06:58:11.783Z,25.03
2018-05-29T06:59:11.322Z,25.11
2018-05-29T07:00:11.617Z,25.16
2018-05-29T07:01:11.672Z,25.11
2018-05-29T07:02:11.681Z,25.16
2018-05-29T07:03:11.441Z,25.26
2018-05-29T07:04:11.713Z,25.23
2018-05-29T07:05:11.737Z,25.32
2018-05-29T07:06:11.762Z,25.31
2018-05-29T07:07:11.924Z,25.38
2018-05-29T07:08:11.285Z,25.51
2018-05-29T07:09:11.863Z,25.48
2018-05-29T07:10:11.875Z,25.55
2018-05-29T07:11:11.641Z,25.62
2018-05-29T07:12:11.664Z,25.6
2018-05-29T07:13:11.961Z,25.72
2018-05-29T07:14:11.699Z,25.73
2018-05-29T07:15:12.003Z,25.77
2018-05-29T07:16:11.804Z,25.78
2018-05-29T07:17:12.040Z,25.95
2018-05-29T07:18:12.093Z,26.03
2018-05-29T07:19:11.838Z,25.99
2018-05-29T07:20:11.884Z,26.07
2018-05-29T07:21:12.170Z,26.13
2018-05-29T07:22:12.203Z,26.19
2018-05-29T07:23:11.950Z,26.18
2018-05-29T07:24:11.972Z,26.23
2018-05-29T07:25:12.264Z,26.31
2018-05-29T07:26:12.224Z,26.34
2018-05-29T07:27:12.342Z,26.51
2018-05-29T07:28:12.341Z,26.56
2018-05-29T07:29:12.387Z,26.68
2018-05-29T07:30:12.402Z,26.63
2018-05-29T07:31:12.427Z,26.8
2018-05-29T07:32:12.177Z,26.78
2018-05-29T07:33:12.490Z,26.99
2018-05-29T07:34:12.486Z,26.99
2018-05-29T07:35:12.240Z,27.03
2018-05-29T07:36:12.561Z,27.03
2018-05-29T07:37:12.303Z,27.15
2018-05-29T07:38:12.345Z,27.21
2018-05-29T07:39:12.107Z,27.29
2018-05-29T07:40:12.379Z,27.42
2018-05-29T07:41:12.702Z,27.47
2018-05-29T07:42:12.718Z,27.49
2018-05-29T07:43:12.757Z,27.63
2018-05-29T07:44:12.762Z,27.67
2018-05-29T07:45:12.965Z,27.68
2018-05-29T07:46:12.824Z,27.83
2018-05-29T07:47:12.843Z,27.96
2018-05-29T07:48:12.882Z,28
2018-05-29T07:49:12.909Z,27.96
2018-05-29T07:50:12.645Z,28.12
2018-05-29T07:51:12.961Z,28.19
2018-05-29T07:52:12.950Z,28.29
2018-05-29T07:53:12.734Z,28.25
2018-05-29T07:54:13.008Z,28.35
2018-05-29T07:55:12.776Z,28.45
2018-05-29T07:56:13.077Z,28.49
2018-05-29T07:57:12.823Z,28.49
2018-05-29T07:58:13.138Z,28.52
2018-05-29T07:59:12.882Z,28.62
2018-05-29T08:00:13.191Z,28.74
2018-05-29T08:01:12.935Z,28.85
2018-05-29T08:02:13.252Z,28.86
2018-05-29T08:03:12.990Z,29.01
2018-05-29T08:04:13.036Z,29.04
2018-05-29T08:05:13.056Z,29.07
2018-05-29T08:06:13.330Z,29.1
2018-05-29T08:07:13.112Z,29.19
2018-05-29T08:08:13.417Z,29.31
2018-05-29T08:09:13.165Z,29.36
2018-05-29T08:10:13.199Z,29.44
2018-05-29T08:11:13.501Z,29.51
2018-05-29T08:12:13.235Z,29.5
2018-05-29T08:13:13.552Z,29.57
2018-05-29T08:14:13.025Z,29.65
2018-05-29T08:15:13.578Z,29.69
2018-05-29T08:16:13.356Z,29.75
2018-05-29T08:17:13.660Z,29.86
2018-05-29T08:18:13.420Z,29.97
2018-05-29T08:19:13.697Z,30.02
2018-05-29T08:20:13.447Z,30.13
2018-05-29T08:21:13.738Z,30.18
2018-05-29T08:22:13.506Z,30.23
2018-05-29T08:23:13.538Z,30.39
2018-05-29T08:24:13.837Z,30.34
2018-05-29T08:25:13.849Z,30.47
2018-05-29T08:26:13.894Z,30.47
2018-05-29T08:27:13.901Z,30.53
2018-05-29T08:28:13.946Z,30.55
2018-05-29T08:29:13.960Z,30.66
2018-05-29T08:30:13.985Z,30.72
2018-05-29T08:31:14.008Z,30.83
2018-05-29T08:32:14.058Z,30.87
2018-05-29T08:33:13.806Z,30.85
2018-05-29T08:34:14.107Z,31.02
2018-05-29T08:35:13.874Z,31.09
2018-05-29T08:36:13.890Z,31.1
2018-05-29T08:37:13.938Z,31.22
2018-05-29T08:38:14.237Z,31.28
2018-05-29T08:39:13.983Z,31.4
2018-05-29T08:40:14.277Z,31.43
2018-05-29T08:41:14.303Z,31.4
2018-05-29T08:42:14.351Z,31.54
2018-05-29T08:43:14.377Z,31.47
2018-05-29T08:44:14.387Z,31.65
2018-05-29T08:45:14.428Z,31.73
2018-05-29T08:46:14.542Z,31.85
2018-05-29T08:47:14.487Z,31.96
2018-05-29T08:48:14.237Z,32
2018-05-29T08:49:14.261Z,32.01
2018-05-29T08:50:14.583Z,32.18
2018-05-29T08:51:14.570Z,32.23
2018-05-29T08:52:14.626Z,32.31
2018-05-29T08:53:14.381Z,32.31
2018-05-29T08:54:14.424Z,32.48
2018-05-29T08:55:14.710Z,32.43
2018-05-29T08:56:14.753Z,32.63
2018-05-29T08:57:14.534Z,32.68
2018-05-29T08:58:14.820Z,32.64
2018-05-29T08:59:14.823Z,32.71
2018-05-29T09:00:14.873Z,32.71
2018-05-29T09:01:14.884Z,32.83
2018-05-29T09:02:14.914Z,32.89
2018-05-29T09:03:14.663Z,32.97
2018-05-29T09:04:15.149Z,33.04
2018-05-29T09:05:14.714Z,33.01
2018-05-29T09:06:15.033Z,33.07
2018-05-29T09:07:14.789Z,33.17
2018-05-29T09:08:15.104Z,33.3
2018-05-29T09:09:15.114Z,33.3
2018-05-29T09:10:15.143Z,33.4
2018-05-29T09:11:15.177Z,33.42
2018-05-29T09:12:15.212Z,33.5
2018-05-29T09:13:14.953Z,33.49
2018-05-29T09:14:15.254Z,33.55
2018-05-29T09:15:15.043Z,33.69
2018-05-29T09:16:15.315Z,33.8
2018-05-29T09:17:15.093Z,33.87
2018-05-29T09:18:15.110Z,33.81
2018-05-29T09:19:15.142Z,33.94
2018-05-29T09:20:15.445Z,34.02
2018-05-29T09:21:15.474Z,34.08
2018-05-29T09:22:14.969Z,34.2
2018-05-29T09:23:15.541Z,34.17
2018-05-29T09:24:15.021Z,34.25
2018-05-29T09:25:15.315Z,34.39
2018-05-29T09:26:15.611Z,34.36
2018-05-29T09:27:15.689Z,34.52
2018-05-29T09:28:15.132Z,34.58
2018-05-29T09:29:15.730Z,34.61
2018-05-29T09:30:15.754Z,34.67
2018-05-29T09:31:15.777Z,34.67
2018-05-29T09:32:15.790Z,34.67
2018-05-29T09:33:15.552Z,34.8
2018-05-29T09:34:15.889Z,34.9
2018-05-29T09:35:15.888Z,34.93
2018-05-29T09:36:15.396Z,35.04
2018-05-29T09:37:15.695Z,35
2018-05-29T09:38:15.712Z,35.17
2018-05-29T09:39:15.735Z,35.22
2018-05-29T09:40:16.103Z,35.34
2018-05-29T09:41:16.062Z,35.3
2018-05-29T09:42:16.125Z,35.36
2018-05-29T09:43:15.867Z,35.42
2018-05-29T09:44:15.908Z,35.45
2018-05-29T09:45:15.930Z,35.52
2018-05-29T09:46:15.692Z,35.7
2018-05-29T09:47:16.256Z,35.6
2018-05-29T09:48:16.101Z,35.79
2018-05-29T09:49:16.325Z,35.74
2018-05-29T09:50:16.387Z,35.82
2018-05-29T09:51:16.391Z,35.83
2018-05-29T09:52:16.452Z,35.88
2018-05-29T09:53:16.457Z,36
2018-05-29T09:54:16.484Z,35.98
2018-05-29T09:55:16.248Z,36.08
2018-05-29T09:56:16.275Z,36.08
2018-05-29T09:57:16.302Z,36.12
2018-05-29T09:58:16.620Z,36.17
2018-05-29T09:59:16.627Z,36.27
2018-05-29T10:00:16.408Z,36.3
2018-05-29T10:01:16.819Z,36.35
2018-05-29T10:02:16.711Z,36.33
2018-05-29T10:03:16.502Z,36.42
2018-05-29T10:04:16.795Z,36.36
2018-05-29T10:05:16.555Z,36.49
2018-05-29T10:06:16.865Z,36.52
2018-05-29T10:07:17.122Z,36.45
2018-05-29T10:08:16.943Z,36.57
2018-05-29T10:09:16.944Z,36.67
2018-05-29T10:10:16.991Z,36.73
2018-05-29T10:11:17.125Z,36.73
2018-05-29T10:12:17.072Z,36.76
2018-05-29T10:13:17.183Z,36.86
2018-05-29T10:14:16.838Z,36.86
2018-05-29T10:15:17.151Z,36.95
2018-05-29T10:16:17.183Z,36.96
2018-05-29T10:17:17.237Z,36.98
2018-05-29T10:18:16.975Z,37.07
2018-05-29T10:19:17.340Z,37.2
2018-05-29T10:20:17.310Z,37.17
2018-05-29T10:21:17.339Z,37.2
2018-05-29T10:22:17.378Z,37.21
2018-05-29T10:23:17.400Z,37.37
2018-05-29T10:24:17.178Z,37.44
2018-05-29T10:25:17.479Z,37.44
2018-05-29T10:26:17.484Z,37.53
2018-05-29T10:27:17.540Z,37.45
2018-05-29T10:28:17.314Z,37.58
2018-05-29T10:29:17.598Z,37.6
2018-05-29T10:30:17.623Z,37.68
2018-05-29T10:31:17.683Z,37.78
2018-05-29T10:32:17.712Z,37.8
2018-05-29T10:33:17.745Z,37.93
2018-05-29T10:34:17.764Z,37.92
2018-05-29T10:35:17.953Z,38.04
2018-05-29T10:36:17.826Z,38.08
2018-05-29T10:37:17.883Z,38.15
2018-05-29T10:38:17.885Z,38.14
2018-05-29T10:39:17.948Z,38.15
2018-05-29T10:40:17.699Z,38.26
2018-05-29T10:41:17.745Z,38.26
2018-05-29T10:42:17.755Z,38.26
2018-05-29T10:43:17.805Z,38.36
2018-05-29T10:44:18.099Z,38.31
2018-05-29T10:45:18.293Z,38.38
2018-05-29T10:46:17.892Z,38.34
2018-05-29T10:47:17.939Z,38.45
2018-05-29T10:48:18.230Z,38.49
2018-05-29T10:49:18.267Z,38.43
2018-05-29T10:50:18.073Z,38.48
2018-05-29T10:51:18.076Z,38.52
2018-05-29T10:52:18.094Z,38.54
2018-05-29T10:53:18.404Z,38.58
2018-05-29T10:54:18.443Z,38.61
2018-05-29T10:55:18.668Z,38.69
2018-05-29T10:56:18.492Z,38.71
2018-05-29T10:57:18.260Z,38.77
2018-05-29T10:58:18.579Z,38.76
2018-05-29T10:59:18.417Z,38.86
2018-05-29T11:00:18.379Z,38.82
2018-05-29T11:01:18.382Z,38.89
2018-05-29T11:02:18.714Z,38.96
2018-05-29T11:03:18.455Z,38.97
2018-05-29T11:04:18.749Z,38.97
2018-05-29T11:05:18.813Z,38.97
2018-05-29T11:06:18.827Z,39.09
2018-05-29T11:07:18.628Z,39.06
2018-05-29T11:08:18.917Z,39.14
2018-05-29T11:09:18.680Z,39.14
2018-05-29T11:10:18.997Z,39.22
2018-05-29T11:11:18.761Z,39.17
2018-05-29T11:12:18.769Z,39.26
2018-05-29T11:13:18.816Z,39.33
2018-05-29T11:14:19.200Z,39.26
2018-05-29T11:15:19.156Z,39.29
2018-05-29T11:16:19.202Z,39.31
2018-05-29T11:17:19.243Z,39.37
2018-05-29T11:18:19.249Z,39.43
2018-05-29T11:19:19.276Z,39.43
2018-05-29T11:20:19.338Z,39.51
2018-05-29T11:21:19.338Z,39.51
2018-05-29T11:22:19.133Z,39.62
2018-05-29T11:23:18.873Z,39.6
2018-05-29T11:24:19.185Z,39.62
2018-05-29T11:25:19.483Z,39.65
2018-05-29T11:26:19.253Z,39.68
2018-05-29T11:27:19.566Z,39.77
2018-05-29T11:28:19.333Z,39.89
2018-05-29T11:29:19.627Z,39.83
2018-05-29T11:30:19.420Z,39.86
2018-05-29T11:31:19.617Z,39.92
2018-05-29T11:32:19.733Z,39.99
2018-05-29T11:33:19.492Z,40.02
2018-05-29T11:34:19.819Z,40.08
2018-05-29T11:35:19.835Z,40.09
2018-05-29T11:36:19.878Z,40.14
2018-05-29T11:37:19.650Z,40.2
2018-05-29T11:38:19.974Z,40.09
2018-05-29T11:39:19.969Z,40.24
2018-05-29T11:40:19.752Z,40.31
2018-05-29T11:41:20.064Z,40.3
2018-05-29T11:42:20.117Z,40.33
2018-05-29T11:43:19.859Z,40.28
2018-05-29T11:44:19.889Z,40.34
2018-05-29T11:45:20.211Z,40.3
2018-05-29T11:46:20.246Z,40.44
2018-05-29T11:47:20.276Z,40.5
2018-05-29T11:48:20.280Z,40.51
2018-05-29T11:49:20.336Z,40.54
2018-05-29T11:50:20.391Z,40.59
2018-05-29T11:51:20.394Z,40.56
2018-05-29T11:52:20.478Z,40.62
2018-05-29T11:53:20.238Z,40.65
2018-05-29T11:54:20.505Z,40.69
2018-05-29T11:55:20.022Z,40.72
2018-05-29T11:56:20.608Z,40.66
2018-05-29T11:57:20.341Z,40.73
2018-05-29T11:58:20.662Z,40.7
2018-05-29T11:59:20.726Z,40.78
2018-05-29T12:00:20.757Z,40.7
2018-05-29T12:01:20.789Z,40.8
2018-05-29T12:02:20.522Z,40.77
2018-05-29T12:03:20.570Z,40.82
2018-05-29T12:04:20.861Z,40.81
2018-05-29T12:05:20.917Z,40.92
2018-05-29T12:06:20.680Z,40.85
2018-05-29T12:07:20.979Z,40.9
2018-05-29T12:08:21.016Z,40.95
2018-05-29T12:09:21.045Z,41.02
2018-05-29T12:10:21.084Z,41
2018-05-29T12:11:21.120Z,41.02
2018-05-29T12:12:21.152Z,40.95
2018-05-29T12:13:21.203Z,40.97
2018-05-29T12:14:21.233Z,41.09
2018-05-29T12:15:21.290Z,41.21
2018-05-29T12:16:21.038Z,41.15
2018-05-29T12:17:21.366Z,41.22
2018-05-29T12:18:21.383Z,41.33
2018-05-29T12:19:21.414Z,41.29
2018-05-29T12:20:21.450Z,41.33
2018-05-29T12:21:21.485Z,41.36
2018-05-29T12:22:21.323Z,41.29
2018-05-29T12:23:21.039Z,41.41
2018-05-29T12:24:21.330Z,41.47
2018-05-29T12:25:21.635Z,41.43
2018-05-29T12:26:21.393Z,41.49
2018-05-29T12:27:21.416Z,41.53
2018-05-29T12:28:21.913Z,41.5
2018-05-29T12:29:21.771Z,41.5
2018-05-29T12:30:21.564Z,41.49
2018-05-29T12:31:21.880Z,41.49
2018-05-29T12:32:21.895Z,41.55
2018-05-29T12:33:21.937Z,41.55
2018-05-29T12:34:21.685Z,41.57
2018-05-29T12:35:21.744Z,41.65
2018-05-29T12:36:22.040Z,41.68
2018-05-29T12:37:22.078Z,41.71
2018-05-29T12:38:21.844Z,41.75
2018-05-29T12:39:21.878Z,41.77
2018-05-29T12:40:21.952Z,41.75
2018-05-29T12:41:22.223Z,41.75
2018-05-29T12:42:21.975Z,41.85
2018-05-29T12:43:22.281Z,41.75
2018-05-29T12:44:22.365Z,41.88
2018-05-29T12:45:22.374Z,41.94
2018-05-29T12:46:22.800Z,41.92
2018-05-29T12:47:22.169Z,42.01
2018-05-29T12:48:22.472Z,41.99
2018-05-29T12:49:22.510Z,42.07
2018-05-29T12:50:22.565Z,42.04
2018-05-29T12:51:22.643Z,41.97
2018-05-29T12:52:22.634Z,42.06
2018-05-29T12:53:22.789Z,42.13
2018-05-29T12:54:22.707Z,42.14
2018-05-29T12:55:22.184Z,42.25